Elmer City, Washington
Current Conditions -  °F | °C
As of 3:53 AM on Friday 28 Nov 2014 (Local Time) from KOMK Reporting Station
Few Clouds Few Clouds  
Wind Chill: 37°   Ceiling: Unl
Heat Index: 43°   Visibility: 10mi
Dew Point: 37°   Wind: 10mph
Humidity: 80%   Direction: 200°SSW
Pressure: 29.5"   Gusts: NA
Location:  48°N, 118.95°W
Report Text: KOMK 281153Z AUTO 20009KT 10SM FEW080 06/03 A2950 RMK AO2 SLP996 T00610028 10072 20056 58023
Loading
Personal Weather Stations






























Interactive Weather Map New forecast layout! Learn more

10-Day Weather Forecast

Advertisements
Track Severe Weather on mobile